sensor_id;sensor_type;location;lat;lon;timestamp;temperature;humidity
68248;SHT30;55064;49.636;12.164;2024-03-29T00:00:35;4.84;88.11
68248;SHT30;55064;49.636;12.164;2024-03-29T00:03:01;4.81;87.96
68248;SHT30;55064;49.636;12.164;2024-03-29T00:05:26;4.81;88.00
68248;SHT30;55064;49.636;12.164;2024-03-29T00:07:51;4.81;88.00
68248;SHT30;55064;49.636;12.164;2024-03-29T00:10:17;4.73;88.31
68248;SHT30;55064;49.636;12.164;2024-03-29T00:12:42;4.73;88.19
68248;SHT30;55064;49.636;12.164;2024-03-29T00:15:08;4.76;88.16
68248;SHT30;55064;49.636;12.164;2024-03-29T00:17:33;4.69;88.17
68248;SHT30;55064;49.636;12.164;2024-03-29T00:19:58;4.67;88.32
68248;SHT30;55064;49.636;12.164;2024-03-29T00:22:24;4.73;87.99
68248;SHT30;55064;49.636;12.164;2024-03-29T00:24:49;4.70;87.93
68248;SHT30;55064;49.636;12.164;2024-03-29T00:27:14;4.72;87.62
68248;SHT30;55064;49.636;12.164;2024-03-29T00:29:40;4.77;87.40
68248;SHT30;55064;49.636;12.164;2024-03-29T00:32:05;4.80;87.20
68248;SHT30;55064;49.636;12.164;2024-03-29T00:34:31;4.80;87.02
68248;SHT30;55064;49.636;12.164;2024-03-29T00:36:56;4.80;86.92
68248;SHT30;55064;49.636;12.164;2024-03-29T00:39:22;4.76;86.96
68248;SHT30;55064;49.636;12.164;2024-03-29T00:41:47;4.76;87.05
68248;SHT30;55064;49.636;12.164;2024-03-29T00:44:13;4.73;87.20
68248;SHT30;55064;49.636;12.164;2024-03-29T00:46:38;4.76;86.88
68248;SHT30;55064;49.636;12.164;2024-03-29T00:49:03;4.77;86.61
68248;SHT30;55064;49.636;12.164;2024-03-29T00:51:29;4.84;86.34
68248;SHT30;55064;49.636;12.164;2024-03-29T00:53:54;4.88;86.11
68248;SHT30;55064;49.636;12.164;2024-03-29T00:56:20;4.90;85.94
68248;SHT30;55064;49.636;12.164;2024-03-29T00:58:45;4.88;85.96
68248;SHT30;55064;49.636;12.164;2024-03-29T01:01:11;4.94;85.32
68248;SHT30;55064;49.636;12.164;2024-03-29T01:03:37;4.91;85.65
68248;SHT30;55064;49.636;12.164;2024-03-29T01:06:02;4.88;85.65
68248;SHT30;55064;49.636;12.164;2024-03-29T01:08:28;4.86;85.70
68248;SHT30;55064;49.636;12.164;2024-03-29T01:10:53;4.80;85.96
68248;SHT30;55064;49.636;12.164;2024-03-29T01:13:19;4.70;86.20
68248;SHT30;55064;49.636;12.164;2024-03-29T01:15:45;4.66;86.24
68248;SHT30;55064;49.636;12.164;2024-03-29T01:18:10;4.59;86.51
68248;SHT30;55064;49.636;12.164;2024-03-29T01:20:35;4.55;86.49
68248;SHT30;55064;49.636;12.164;2024-03-29T01:23:01;4.52;86.19
68248;SHT30;55064;49.636;12.164;2024-03-29T01:25:26;4.55;85.98
68248;SHT30;55064;49.636;12.164;2024-03-29T01:27:52;4.63;85.62
68248;SHT30;55064;49.636;12.164;2024-03-29T01:30:18;4.75;85.01
68248;SHT30;55064;49.636;12.164;2024-03-29T01:32:43;4.76;84.83
68248;SHT30;55064;49.636;12.164;2024-03-29T01:35:09;4.69;84.98
68248;SHT30;55064;49.636;12.164;2024-03-29T01:37:35;4.70;84.89
68248;SHT30;55064;49.636;12.164;2024-03-29T01:40:00;4.66;85.05
68248;SHT30;55064;49.636;12.164;2024-03-29T01:42:26;4.63;85.15
68248;SHT30;55064;49.636;12.164;2024-03-29T01:44:51;4.55;85.39
68248;SHT30;55064;49.636;12.164;2024-03-29T01:47:17;4.55;85.37
68248;SHT30;55064;49.636;12.164;2024-03-29T01:49:44;4.55;85.38
68248;SHT30;55064;49.636;12.164;2024-03-29T01:52:11;4.50;85.50
68248;SHT30;55064;49.636;12.164;2024-03-29T01:54:37;4.52;85.47
68248;SHT30;55064;49.636;12.164;2024-03-29T01:57:03;4.56;85.31
68248;SHT30;55064;49.636;12.164;2024-03-29T01:59:29;4.62;84.89
68248;SHT30;55064;49.636;12.164;2024-03-29T02:01:54;4.75;84.43
68248;SHT30;55064;49.636;12.164;2024-03-29T02:04:20;4.90;83.66
68248;SHT30;55064;49.636;12.164;2024-03-29T02:06:46;4.87;83.78
68248;SHT30;55064;49.636;12.164;2024-03-29T02:09:12;4.90;83.57
68248;SHT30;55064;49.636;12.164;2024-03-29T02:11:38;4.95;83.48
68248;SHT30;55064;49.636;12.164;2024-03-29T02:14:03;4.93;83.54
68248;SHT30;55064;49.636;12.164;2024-03-29T02:16:31;4.97;83.32
68248;SHT30;55064;49.636;12.164;2024-03-29T02:18:56;5.05;83.16
68248;SHT30;55064;49.636;12.164;2024-03-29T02:21:21;5.05;83.09
68248;SHT30;55064;49.636;12.164;2024-03-29T02:23:47;5.10;82.65
68248;SHT30;55064;49.636;12.164;2024-03-29T02:26:16;5.10;82.53
68248;SHT30;55064;49.636;12.164;2024-03-29T02:28:41;5.15;82.06
68248;SHT30;55064;49.636;12.164;2024-03-29T02:31:06;5.15;82.31
68248;SHT30;55064;49.636;12.164;2024-03-29T02:33:33;5.15;82.33
68248;SHT30;55064;49.636;12.164;2024-03-29T02:35:58;5.18;82.36
68248;SHT30;55064;49.636;12.164;2024-03-29T02:38:24;5.18;81.76
68248;SHT30;55064;49.636;12.164;2024-03-29T02:40:49;5.15;82.32
68248;SHT30;55064;49.636;12.164;2024-03-29T02:43:14;5.21;81.79
68248;SHT30;55064;49.636;12.164;2024-03-29T02:45:40;5.32;80.91
68248;SHT30;55064;49.636;12.164;2024-03-29T02:48:05;5.36;81.05
68248;SHT30;55064;49.636;12.164;2024-03-29T02:50:31;5.32;81.32
68248;SHT30;55064;49.636;12.164;2024-03-29T02:52:56;5.25;81.64
68248;SHT30;55064;49.636;12.164;2024-03-29T02:55:22;5.27;81.62
68248;SHT30;55064;49.636;12.164;2024-03-29T02:57:47;5.30;81.56
68248;SHT30;55064;49.636;12.164;2024-03-29T03:00:13;5.41;80.91
68248;SHT30;55064;49.636;12.164;2024-03-29T03:02:39;5.42;80.79
68248;SHT30;55064;49.636;12.164;2024-03-29T03:05:05;5.51;80.39
68248;SHT30;55064;49.636;12.164;2024-03-29T03:07:30;5.45;80.80
68248;SHT30;55064;49.636;12.164;2024-03-29T03:10:14;5.46;80.54
68248;SHT30;55064;49.636;12.164;2024-03-29T03:12:58;5.53;80.33
68248;SHT30;55064;49.636;12.164;2024-03-29T03:15:23;5.52;80.48
68248;SHT30;55064;49.636;12.164;2024-03-29T03:17:49;5.48;80.50
68248;SHT30;55064;49.636;12.164;2024-03-29T03:20:14;5.56;80.34
68248;SHT30;55064;49.636;12.164;2024-03-29T03:22:41;5.52;80.40
68248;SHT30;55064;49.636;12.164;2024-03-29T03:25:07;5.53;80.20
68248;SHT30;55064;49.636;12.164;2024-03-29T03:27:33;5.56;79.98
68248;SHT30;55064;49.636;12.164;2024-03-29T03:29:58;5.58;80.07
68248;SHT30;55064;49.636;12.164;2024-03-29T03:32:23;5.49;80.61
68248;SHT30;55064;49.636;12.164;2024-03-29T03:34:49;5.52;80.39
68248;SHT30;55064;49.636;12.164;2024-03-29T03:37:14;5.51;80.49
68248;SHT30;55064;49.636;12.164;2024-03-29T03:39:39;5.51;80.54
68248;SHT30;55064;49.636;12.164;2024-03-29T03:42:05;5.55;80.31
68248;SHT30;55064;49.636;12.164;2024-03-29T03:44:30;5.55;80.03
68248;SHT30;55064;49.636;12.164;2024-03-29T03:46:56;5.58;79.90
68248;SHT30;55064;49.636;12.164;2024-03-29T03:49:21;5.58;79.87
68248;SHT30;55064;49.636;12.164;2024-03-29T03:51:46;5.55;79.97
68248;SHT30;55064;49.636;12.164;2024-03-29T03:54:12;5.45;80.54
68248;SHT30;55064;49.636;12.164;2024-03-29T03:56:37;5.52;79.94
68248;SHT30;55064;49.636;12.164;2024-03-29T03:59:02;5.43;80.32
68248;SHT30;55064;49.636;12.164;2024-03-29T04:01:28;5.45;80.12
68248;SHT30;55064;49.636;12.164;2024-03-29T04:03:53;5.42;80.24
68248;SHT30;55064;49.636;12.164;2024-03-29T04:06:18;5.42;80.07
68248;SHT30;55064;49.636;12.164;2024-03-29T04:08:44;5.36;80.48
68248;SHT30;55064;49.636;12.164;2024-03-29T04:11:10;5.38;80.06
68248;SHT30;55064;49.636;12.164;2024-03-29T04:13:35;5.46;79.84
68248;SHT30;55064;49.636;12.164;2024-03-29T04:16:04;5.42;79.80
68248;SHT30;55064;49.636;12.164;2024-03-29T04:18:30;5.49;79.48
68248;SHT30;55064;49.636;12.164;2024-03-29T04:20:57;5.46;79.64
68248;SHT30;55064;49.636;12.164;2024-03-29T04:23:22;5.42;79.80
68248;SHT30;55064;49.636;12.164;2024-03-29T04:25:54;5.53;79.42
68248;SHT30;55064;49.636;12.164;2024-03-29T04:28:20;5.67;78.04
68248;SHT30;55064;49.636;12.164;2024-03-29T04:30:53;5.63;78.58
68248;SHT30;55064;49.636;12.164;2024-03-29T04:33:19;5.65;78.28
68248;SHT30;55064;49.636;12.164;2024-03-29T04:36:04;5.67;78.43
68248;SHT30;55064;49.636;12.164;2024-03-29T04:38:31;5.66;78.39
68248;SHT30;55064;49.636;12.164;2024-03-29T04:40:58;5.66;78.32
68248;SHT30;55064;49.636;12.164;2024-03-29T04:43:25;5.71;77.82
68248;SHT30;55064;49.636;12.164;2024-03-29T04:46:07;5.67;78.17
68248;SHT30;55064;49.636;12.164;2024-03-29T04:48:34;5.74;77.83
68248;SHT30;55064;49.636;12.164;2024-03-29T04:51:00;5.73;77.93
68248;SHT30;55064;49.636;12.164;2024-03-29T04:53:25;5.69;78.24
68248;SHT30;55064;49.636;12.164;2024-03-29T04:55:54;5.62;78.65
68248;SHT30;55064;49.636;12.164;2024-03-29T04:58:24;5.67;78.38
68248;SHT30;55064;49.636;12.164;2024-03-29T05:00:51;5.65;78.47
68248;SHT30;55064;49.636;12.164;2024-03-29T05:03:20;5.65;78.43
68248;SHT30;55064;49.636;12.164;2024-03-29T05:05:46;5.53;79.05
68248;SHT30;55064;49.636;12.164;2024-03-29T05:08:12;5.45;79.38
68248;SHT30;55064;49.636;12.164;2024-03-29T05:10:39;5.52;78.83
68248;SHT30;55064;49.636;12.164;2024-03-29T05:13:04;5.58;78.25
68248;SHT30;55064;49.636;12.164;2024-03-29T05:15:30;5.53;78.69
68248;SHT30;55064;49.636;12.164;2024-03-29T05:17:56;5.56;78.49
68248;SHT30;55064;49.636;12.164;2024-03-29T05:20:21;5.58;78.32
68248;SHT30;55064;49.636;12.164;2024-03-29T05:22:46;5.58;78.26
68248;SHT30;55064;49.636;12.164;2024-03-29T05:25:12;5.53;78.61
68248;SHT30;55064;49.636;12.164;2024-03-29T05:27:37;5.59;78.25
68248;SHT30;55064;49.636;12.164;2024-03-29T05:30:03;5.67;77.81
68248;SHT30;55064;49.636;12.164;2024-03-29T05:32:29;5.71;77.72
68248;SHT30;55064;49.636;12.164;2024-03-29T05:34:55;5.79;77.31
68248;SHT30;55064;49.636;12.164;2024-03-29T05:37:20;5.85;77.19
68248;SHT30;55064;49.636;12.164;2024-03-29T05:39:47;5.89;77.23
68248;SHT30;55064;49.636;12.164;2024-03-29T05:42:13;5.90;77.10
68248;SHT30;55064;49.636;12.164;2024-03-29T05:44:38;5.96;76.86
68248;SHT30;55064;49.636;12.164;2024-03-29T05:47:04;6.08;76.22
68248;SHT30;55064;49.636;12.164;2024-03-29T05:49:30;6.13;76.36
68248;SHT30;55064;49.636;12.164;2024-03-29T05:51:56;6.20;76.07
68248;SHT30;55064;49.636;12.164;2024-03-29T05:54:21;6.34;75.63
68248;SHT30;55064;49.636;12.164;2024-03-29T05:56:48;6.39;75.52
68248;SHT30;55064;49.636;12.164;2024-03-29T05:59:13;6.44;75.85
68248;SHT30;55064;49.636;12.164;2024-03-29T06:01:38;6.55;74.98
68248;SHT30;55064;49.636;12.164;2024-03-29T06:04:04;6.66;75.10
68248;SHT30;55064;49.636;12.164;2024-03-29T06:06:32;6.75;75.02
68248;SHT30;55064;49.636;12.164;2024-03-29T06:08:57;6.91;73.57
68248;SHT30;55064;49.636;12.164;2024-03-29T06:11:22;7.03;73.86
68248;SHT30;55064;49.636;12.164;2024-03-29T06:13:48;7.08;74.21
68248;SHT30;55064;49.636;12.164;2024-03-29T06:16:20;7.21;73.42
68248;SHT30;55064;49.636;12.164;2024-03-29T06:19:04;7.31;73.61
68248;SHT30;55064;49.636;12.164;2024-03-29T06:21:30;7.39;72.69
68248;SHT30;55064;49.636;12.164;2024-03-29T06:24:07;7.45;72.92
68248;SHT30;55064;49.636;12.164;2024-03-29T06:26:33;7.46;71.91
68248;SHT30;55064;49.636;12.164;2024-03-29T06:28:59;7.51;71.73
68248;SHT30;55064;49.636;12.164;2024-03-29T06:31:24;7.63;71.99
68248;SHT30;55064;49.636;12.164;2024-03-29T06:33:50;7.65;71.06
68248;SHT30;55064;49.636;12.164;2024-03-29T06:36:15;7.69;71.26
68248;SHT30;55064;49.636;12.164;2024-03-29T06:38:40;7.74;70.39
68248;SHT30;55064;49.636;12.164;2024-03-29T06:41:06;7.77;71.08
68248;SHT30;55064;49.636;12.164;2024-03-29T06:43:31;7.82;70.52
68248;SHT30;55064;49.636;12.164;2024-03-29T06:45:56;7.86;70.17
68248;SHT30;55064;49.636;12.164;2024-03-29T06:48:23;7.97;69.89
68248;SHT30;55064;49.636;12.164;2024-03-29T06:50:49;7.93;69.74
68248;SHT30;55064;49.636;12.164;2024-03-29T06:53:15;8.04;70.08
68248;SHT30;55064;49.636;12.164;2024-03-29T06:55:40;8.04;69.58
68248;SHT30;55064;49.636;12.164;2024-03-29T06:58:06;8.10;69.78
68248;SHT30;55064;49.636;12.164;2024-03-29T07:00:32;8.22;70.37
68248;SHT30;55064;49.636;12.164;2024-03-29T07:02:58;8.32;70.72
68248;SHT30;55064;49.636;12.164;2024-03-29T07:05:23;8.28;69.09
68248;SHT30;55064;49.636;12.164;2024-03-29T07:07:48;8.24;69.43
68248;SHT30;55064;49.636;12.164;2024-03-29T07:10:14;8.34;68.56
68248;SHT30;55064;49.636;12.164;2024-03-29T07:12:39;8.41;69.48
68248;SHT30;55064;49.636;12.164;2024-03-29T07:15:05;8.48;67.86
68248;SHT30;55064;49.636;12.164;2024-03-29T07:17:31;8.55;68.86
68248;SHT30;55064;49.636;12.164;2024-03-29T07:19:56;8.65;68.26
68248;SHT30;55064;49.636;12.164;2024-03-29T07:22:21;8.69;68.02
68248;SHT30;55064;49.636;12.164;2024-03-29T07:24:47;8.80;67.18
68248;SHT30;55064;49.636;12.164;2024-03-29T07:27:12;8.96;67.17
68248;SHT30;55064;49.636;12.164;2024-03-29T07:29:39;9.15;67.46
68248;SHT30;55064;49.636;12.164;2024-03-29T07:32:05;9.31;66.41
68248;SHT30;55064;49.636;12.164;2024-03-29T07:34:31;9.34;65.82
68248;SHT30;55064;49.636;12.164;2024-03-29T07:36:56;9.35;66.89
68248;SHT30;55064;49.636;12.164;2024-03-29T07:39:22;9.39;66.27
68248;SHT30;55064;49.636;12.164;2024-03-29T07:41:48;9.45;64.84
68248;SHT30;55064;49.636;12.164;2024-03-29T07:44:13;9.39;65.06
68248;SHT30;55064;49.636;12.164;2024-03-29T07:46:38;9.45;64.50
68248;SHT30;55064;49.636;12.164;2024-03-29T07:49:05;9.53;65.01
68248;SHT30;55064;49.636;12.164;2024-03-29T07:51:30;9.56;63.87
68248;SHT30;55064;49.636;12.164;2024-03-29T07:53:56;9.72;64.09
68248;SHT30;55064;49.636;12.164;2024-03-29T08:16:00;10.35;62.97
68248;SHT30;55064;49.636;12.164;2024-03-29T08:18:27;10.73;58.70
68248;SHT30;55064;49.636;12.164;2024-03-29T08:20:52;11.00;59.00
68248;SHT30;55064;49.636;12.164;2024-03-29T08:23:20;11.25;57.10
68248;SHT30;55064;49.636;12.164;2024-03-29T08:25:45;11.30;56.03
68248;SHT30;55064;49.636;12.164;2024-03-29T08:28:11;11.17;55.97
68248;SHT30;55064;49.636;12.164;2024-03-29T08:30:36;11.20;56.12
68248;SHT30;55064;49.636;12.164;2024-03-29T08:33:02;10.90;56.68
68248;SHT30;55064;49.636;12.164;2024-03-29T08:35:29;11.00;57.36
68248;SHT30;55064;49.636;12.164;2024-03-29T08:37:54;10.92;57.66
68248;SHT30;55064;49.636;12.164;2024-03-29T08:40:20;10.92;58.71
68248;SHT30;55064;49.636;12.164;2024-03-29T08:42:45;11.04;57.66
68248;SHT30;55064;49.636;12.164;2024-03-29T08:45:10;11.28;58.50
68248;SHT30;55064;49.636;12.164;2024-03-29T08:47:37;11.32;57.99
68248;SHT30;55064;49.636;12.164;2024-03-29T08:50:02;11.59;56.94
68248;SHT30;55064;49.636;12.164;2024-03-29T08:52:29;11.85;56.42
68248;SHT30;55064;49.636;12.164;2024-03-29T08:54:55;12.03;55.47
68248;SHT30;55064;49.636;12.164;2024-03-29T08:57:20;12.13;53.90
68248;SHT30;55064;49.636;12.164;2024-03-29T08:59:45;12.28;55.18
68248;SHT30;55064;49.636;12.164;2024-03-29T09:02:11;12.59;55.50
68248;SHT30;55064;49.636;12.164;2024-03-29T09:04:36;12.54;54.04
68248;SHT30;55064;49.636;12.164;2024-03-29T09:07:02;12.76;54.04
68248;SHT30;55064;49.636;12.164;2024-03-29T09:09:29;12.61;52.04
68248;SHT30;55064;49.636;12.164;2024-03-29T09:11:54;12.65;53.12
68248;SHT30;55064;49.636;12.164;2024-03-29T09:14:20;12.69;51.81
68248;SHT30;55064;49.636;12.164;2024-03-29T09:16:46;12.93;52.51
68248;SHT30;55064;49.636;12.164;2024-03-29T09:19:13;12.81;52.42
68248;SHT30;55064;49.636;12.164;2024-03-29T09:21:39;12.83;52.37
68248;SHT30;55064;49.636;12.164;2024-03-29T09:24:05;12.59;52.77
68248;SHT30;55064;49.636;12.164;2024-03-29T09:26:31;12.45;53.10
68248;SHT30;55064;49.636;12.164;2024-03-29T09:28:56;12.33;53.35
68248;SHT30;55064;49.636;12.164;2024-03-29T09:31:21;12.26;53.90
68248;SHT30;55064;49.636;12.164;2024-03-29T09:33:47;12.27;54.48
68248;SHT30;55064;49.636;12.164;2024-03-29T09:36:19;12.20;55.71
68248;SHT30;55064;49.636;12.164;2024-03-29T09:38:44;12.24;56.84
68248;SHT30;55064;49.636;12.164;2024-03-29T09:41:17;12.26;56.22
68248;SHT30;55064;49.636;12.164;2024-03-29T09:43:45;12.30;57.23
68248;SHT30;55064;49.636;12.164;2024-03-29T09:46:11;12.24;56.83
68248;SHT30;55064;49.636;12.164;2024-03-29T09:48:39;12.21;56.88
68248;SHT30;55064;49.636;12.164;2024-03-29T09:51:05;12.18;57.72
68248;SHT30;55064;49.636;12.164;2024-03-29T09:53:32;12.23;57.63
68248;SHT30;55064;49.636;12.164;2024-03-29T09:56:00;12.14;57.57
68248;SHT30;55064;49.636;12.164;2024-03-29T09:58:26;12.16;57.45
68248;SHT30;55064;49.636;12.164;2024-03-29T10:00:52;12.12;58.25
68248;SHT30;55064;49.636;12.164;2024-03-29T10:03:17;12.13;58.75
68248;SHT30;55064;49.636;12.164;2024-03-29T10:05:46;12.12;59.82
68248;SHT30;55064;49.636;12.164;2024-03-29T10:08:12;12.13;59.48
68248;SHT30;55064;49.636;12.164;2024-03-29T10:10:38;12.01;60.38
68248;SHT30;55064;49.636;12.164;2024-03-29T10:13:04;11.97;62.44
68248;SHT30;55064;49.636;12.164;2024-03-29T10:15:29;12.01;63.24
68248;SHT30;55064;49.636;12.164;2024-03-29T10:17:57;12.01;62.56
68248;SHT30;55064;49.636;12.164;2024-03-29T10:20:23;12.00;62.40
68248;SHT30;55064;49.636;12.164;2024-03-29T10:22:48;12.06;64.47
68248;SHT30;55064;49.636;12.164;2024-03-29T10:25:14;12.04;63.49
68248;SHT30;55064;49.636;12.164;2024-03-29T10:27:40;12.10;65.09
68248;SHT30;55064;49.636;12.164;2024-03-29T10:30:07;12.06;65.36
68248;SHT30;55064;49.636;12.164;2024-03-29T10:32:37;12.13;65.61
68248;SHT30;55064;49.636;12.164;2024-03-29T10:35:02;12.09;66.39
68248;SHT30;55064;49.636;12.164;2024-03-29T10:37:28;12.06;64.62
68248;SHT30;55064;49.636;12.164;2024-03-29T10:39:54;12.04;65.41
68248;SHT30;55064;49.636;12.164;2024-03-29T10:42:22;12.13;64.94
68248;SHT30;55064;49.636;12.164;2024-03-29T10:44:50;12.10;63.74
68248;SHT30;55064;49.636;12.164;2024-03-29T10:47:19;12.10;63.20
68248;SHT30;55064;49.636;12.164;2024-03-29T10:49:50;12.14;62.38
68248;SHT30;55064;49.636;12.164;2024-03-29T10:52:17;12.23;63.81
68248;SHT30;55064;49.636;12.164;2024-03-29T10:54:44;12.24;63.78
68248;SHT30;55064;49.636;12.164;2024-03-29T10:57:16;12.27;61.68
68248;SHT30;55064;49.636;12.164;2024-03-29T11:02:28;12.48;62.89
68248;SHT30;55064;49.636;12.164;2024-03-29T11:04:59;12.54;63.46
68248;SHT30;55064;49.636;12.164;2024-03-29T11:07:25;12.59;61.72
68248;SHT30;55064;49.636;12.164;2024-03-29T11:09:56;12.65;62.41
68248;SHT30;55064;49.636;12.164;2024-03-29T11:12:25;12.72;62.23
68248;SHT30;55064;49.636;12.164;2024-03-29T11:15:04;12.68;61.51
68248;SHT30;55064;49.636;12.164;2024-03-29T11:17:30;12.73;61.19
68248;SHT30;55064;49.636;12.164;2024-03-29T11:19:58;12.78;61.18
68248;SHT30;55064;49.636;12.164;2024-03-29T11:22:24;12.76;61.65
68248;SHT30;55064;49.636;12.164;2024-03-29T11:24:53;12.75;61.91
68248;SHT30;55064;49.636;12.164;2024-03-29T11:27:22;12.76;61.77
68248;SHT30;55064;49.636;12.164;2024-03-29T11:29:48;12.76;61.12
68248;SHT30;55064;49.636;12.164;2024-03-29T11:32:15;12.76;61.41
68248;SHT30;55064;49.636;12.164;2024-03-29T11:34:44;12.82;61.71
68248;SHT30;55064;49.636;12.164;2024-03-29T11:37:11;12.92;61.92
68248;SHT30;55064;49.636;12.164;2024-03-29T11:39:36;13.04;61.75
68248;SHT30;55064;49.636;12.164;2024-03-29T11:42:02;13.16;60.73
68248;SHT30;55064;49.636;12.164;2024-03-29T11:44:28;13.11;60.64
68248;SHT30;55064;49.636;12.164;2024-03-29T11:46:57;13.13;60.85
68248;SHT30;55064;49.636;12.164;2024-03-29T11:49:23;13.16;61.06
68248;SHT30;55064;49.636;12.164;2024-03-29T11:51:49;13.17;60.79
68248;SHT30;55064;49.636;12.164;2024-03-29T11:54:14;13.09;62.03
68248;SHT30;55064;49.636;12.164;2024-03-29T11:56:39;13.20;61.81
68248;SHT30;55064;49.636;12.164;2024-03-29T11:59:05;13.27;62.11
68248;SHT30;55064;49.636;12.164;2024-03-29T12:01:30;13.38;62.23
68248;SHT30;55064;49.636;12.164;2024-03-29T12:03:58;13.57;63.20
68248;SHT30;55064;49.636;12.164;2024-03-29T12:06:24;13.64;62.89
68248;SHT30;55064;49.636;12.164;2024-03-29T12:08:50;13.62;62.17
68248;SHT30;55064;49.636;12.164;2024-03-29T12:11:18;13.69;60.71
68248;SHT30;55064;49.636;12.164;2024-03-29T12:13:44;13.71;60.22
68248;SHT30;55064;49.636;12.164;2024-03-29T12:16:09;13.69;59.14
68248;SHT30;55064;49.636;12.164;2024-03-29T12:18:35;13.75;59.91
68248;SHT30;55064;49.636;12.164;2024-03-29T12:21:01;13.79;60.04
68248;SHT30;55064;49.636;12.164;2024-03-29T12:23:27;13.61;58.19
68248;SHT30;55064;49.636;12.164;2024-03-29T12:25:57;13.76;59.20
68248;SHT30;55064;49.636;12.164;2024-03-29T12:28:24;13.78;59.44
68248;SHT30;55064;49.636;12.164;2024-03-29T12:30:50;13.89;58.58
68248;SHT30;55064;49.636;12.164;2024-03-29T12:33:17;14.05;57.69
68248;SHT30;55064;49.636;12.164;2024-03-29T12:35:46;14.23;56.30
68248;SHT30;55064;49.636;12.164;2024-03-29T12:38:15;14.38;57.06
68248;SHT30;55064;49.636;12.164;2024-03-29T12:40:42;14.38;55.97
68248;SHT30;55064;49.636;12.164;2024-03-29T12:43:09;14.54;56.50
68248;SHT30;55064;49.636;12.164;2024-03-29T12:45:36;14.41;56.08
68248;SHT30;55064;49.636;12.164;2024-03-29T12:48:02;14.38;56.00
68248;SHT30;55064;49.636;12.164;2024-03-29T12:50:32;14.45;56.57
68248;SHT30;55064;49.636;12.164;2024-03-29T12:53:06;14.49;57.22
68248;SHT30;55064;49.636;12.164;2024-03-29T12:55:31;14.57;56.26
68248;SHT30;55064;49.636;12.164;2024-03-29T12:58:00;14.68;56.90
68248;SHT30;55064;49.636;12.164;2024-03-29T13:00:26;14.65;56.11
68248;SHT30;55064;49.636;12.164;2024-03-29T13:02:52;14.68;55.98
68248;SHT30;55064;49.636;12.164;2024-03-29T13:05:18;14.84;55.97
68248;SHT30;55064;49.636;12.164;2024-03-29T13:07:43;14.82;56.05
68248;SHT30;55064;49.636;12.164;2024-03-29T13:10:09;14.89;55.75
68248;SHT30;55064;49.636;12.164;2024-03-29T13:12:45;15.10;55.82
68248;SHT30;55064;49.636;12.164;2024-03-29T13:15:19;15.34;56.10
68248;SHT30;55064;49.636;12.164;2024-03-29T13:17:46;15.51;55.57
68248;SHT30;55064;49.636;12.164;2024-03-29T13:20:13;15.58;55.68
68248;SHT30;55064;49.636;12.164;2024-03-29T13:22:40;15.81;55.19
68248;SHT30;55064;49.636;12.164;2024-03-29T13:25:08;16.03;54.12
68248;SHT30;55064;49.636;12.164;2024-03-29T13:27:36;15.81;54.70
68248;SHT30;55064;49.636;12.164;2024-03-29T13:30:02;15.88;55.17
68248;SHT30;55064;49.636;12.164;2024-03-29T13:32:28;16.27;55.09
68248;SHT30;55064;49.636;12.164;2024-03-29T13:34:57;16.53;54.64
68248;SHT30;55064;49.636;12.164;2024-03-29T13:37:22;16.61;53.17
68248;SHT30;55064;49.636;12.164;2024-03-29T13:39:51;16.64;54.13
68248;SHT30;55064;49.636;12.164;2024-03-29T13:42:17;16.57;53.41
68248;SHT30;55064;49.636;12.164;2024-03-29T13:44:42;16.54;53.19
68248;SHT30;55064;49.636;12.164;2024-03-29T13:47:07;16.64;53.21
68248;SHT30;55064;49.636;12.164;2024-03-29T13:49:41;16.68;53.61
68248;SHT30;55064;49.636;12.164;2024-03-29T13:52:07;16.50;53.20
68248;SHT30;55064;49.636;12.164;2024-03-29T13:54:33;16.44;53.08
68248;SHT30;55064;49.636;12.164;2024-03-29T13:56:59;16.57;52.73
68248;SHT30;55064;49.636;12.164;2024-03-29T13:59:25;16.68;52.83
68248;SHT30;55064;49.636;12.164;2024-03-29T14:01:50;17.04;52.92
68248;SHT30;55064;49.636;12.164;2024-03-29T14:04:16;17.27;51.98
68248;SHT30;55064;49.636;12.164;2024-03-29T14:06:41;17.09;51.23
68248;SHT30;55064;49.636;12.164;2024-03-29T14:09:07;16.96;51.30
68248;SHT30;55064;49.636;12.164;2024-03-29T14:11:33;16.91;51.52
68248;SHT30;55064;49.636;12.164;2024-03-29T14:13:58;16.88;52.42
68248;SHT30;55064;49.636;12.164;2024-03-29T14:16:24;16.84;52.01
68248;SHT30;55064;49.636;12.164;2024-03-29T14:18:49;16.61;51.76
68248;SHT30;55064;49.636;12.164;2024-03-29T14:21:15;16.65;52.09
68248;SHT30;55064;49.636;12.164;2024-03-29T14:23:40;16.75;51.56
68248;SHT30;55064;49.636;12.164;2024-03-29T14:26:06;16.87;52.21
68248;SHT30;55064;49.636;12.164;2024-03-29T14:28:31;16.82;51.87
68248;SHT30;55064;49.636;12.164;2024-03-29T14:30:56;17.02;51.36
68248;SHT30;55064;49.636;12.164;2024-03-29T14:33:22;17.05;51.44
68248;SHT30;55064;49.636;12.164;2024-03-29T14:35:48;17.16;51.49
68248;SHT30;55064;49.636;12.164;2024-03-29T14:38:14;17.22;51.26
68248;SHT30;55064;49.636;12.164;2024-03-29T14:40:40;17.37;50.71
68248;SHT30;55064;49.636;12.164;2024-03-29T14:43:05;17.64;50.63
68248;SHT30;55064;49.636;12.164;2024-03-29T14:45:31;17.53;49.49
68248;SHT30;55064;49.636;12.164;2024-03-29T14:47:56;17.34;49.35
68248;SHT30;55064;49.636;12.164;2024-03-29T14:50:21;17.29;50.68
68248;SHT30;55064;49.636;12.164;2024-03-29T14:52:47;17.18;51.19
68248;SHT30;55064;49.636;12.164;2024-03-29T14:55:12;17.18;51.08
68248;SHT30;55064;49.636;12.164;2024-03-29T14:57:38;17.23;51.28
68248;SHT30;55064;49.636;12.164;2024-03-29T15:00:05;17.23;51.31
68248;SHT30;55064;49.636;12.164;2024-03-29T15:02:31;17.33;51.78
68248;SHT30;55064;49.636;12.164;2024-03-29T15:04:57;17.42;51.98
68248;SHT30;55064;49.636;12.164;2024-03-29T15:07:23;17.30;51.30
68248;SHT30;55064;49.636;12.164;2024-03-29T15:09:52;17.20;51.72
68248;SHT30;55064;49.636;12.164;2024-03-29T15:12:17;17.25;52.30
68248;SHT30;55064;49.636;12.164;2024-03-29T15:14:43;17.23;52.53
68248;SHT30;55064;49.636;12.164;2024-03-29T15:17:08;17.32;52.74
68248;SHT30;55064;49.636;12.164;2024-03-29T15:19:33;17.36;51.57
68248;SHT30;55064;49.636;12.164;2024-03-29T15:21:59;17.37;51.07
68248;SHT30;55064;49.636;12.164;2024-03-29T15:24:24;17.36;51.82
68248;SHT30;55064;49.636;12.164;2024-03-29T15:26:50;17.40;51.90
68248;SHT30;55064;49.636;12.164;2024-03-29T15:29:17;17.43;51.66
68248;SHT30;55064;49.636;12.164;2024-03-29T15:31:44;17.50;51.56
68248;SHT30;55064;49.636;12.164;2024-03-29T15:34:10;17.60;52.33
68248;SHT30;55064;49.636;12.164;2024-03-29T15:36:37;17.77;53.21
68248;SHT30;55064;49.636;12.164;2024-03-29T15:39:03;17.82;53.51